Huvudsida
METAR-TAF:

METAR-TAF

Flygplatser :

Hasviks flygplats

Hasviks, Norge

latitud: 70-29N, longitud: 022-09E, höjd: 10 m

Aktuellt väderrapport

Denna rapport gjordes för 15 minuter sedan, klockan 13:50 UTC
Vind 5 kt från nordväst
Temperatur 14°C
Fuktighet 67%
Tryck 993 hPa
Sikt 10 km eller mer
Inga moln under 1 500 m eller inga cumulonimbus

METAR: ENHK 191350Z 31005KT CAVOK 14/08 Q0993

Tid: 16:05 (14:05 UTC)


TAF: saknas

Aktuella väderrapporter och prognoser från 4000 flygplatser (METAR- och TAF-rapporter).

De tillgängliga stationerna syns som gula och röda prickar på kartan.

För musen över prickarna för att se namnen på stationerna.

Klicka sedan för att få väderrapporter och prognoser.

För att ändra kartan: Klicka på de gröna knapparna med ett svart kors på för att zooma in; den gröna knappen med ett streck på för att zooma ut; eller på de gröna pilarna för angränsande kartor.


METAR-TAF: